Time;durP1;ratioP1;P1;durP2;ratioP2;P2;SDS_P1;SDS_P2;PMS_P1;PMS_P2;Temp;Humidity;BMP_temperature;BMP_pressure;BME280_temperature;BME280_humidity;BME280_pressure;Samples;Min_cycle;Max_cycle;Signal;HPM_P1;HPM_P2
2022/12/31 00:00:38;;;;;;;33.28;3.97;;;;;;;12.10;100.00;99690.69;5015008;28;20037;-72
2022/12/31 00:03:05;;;;;;;33.40;4.50;;;;;;;12.10;100.00;99664.81;4982749;28;20062;-73
2022/12/31 00:05:31;;;;;;;29.58;4.10;;;;;;;12.08;100.00;99685.44;4970146;28;20084;-72
2022/12/31 00:07:57;;;;;;;37.00;4.68;;;;;;;12.09;100.00;99664.00;5018684;28;20029;-72
2022/12/31 00:10:22;;;;;;;27.15;4.13;;;;;;;12.09;100.00;99680.72;5021582;28;20449;-72
2022/12/31 00:12:48;;;;;;;35.75;4.40;;;;;;;12.10;100.00;99668.41;5005229;28;20498;-72
2022/12/31 00:15:13;;;;;;;27.73;4.53;;;;;;;12.10;100.00;99684.31;5006728;28;20026;-72
2022/12/31 00:17:39;;;;;;;25.83;3.83;;;;;;;12.13;100.00;99687.25;5030296;28;20058;-72
2022/12/31 00:20:05;;;;;;;19.88;3.45;;;;;;;12.10;100.00;99679.56;5017610;28;20218;-72
2022/12/31 00:22:30;;;;;;;24.88;3.47;;;;;;;12.12;100.00;99674.50;5022851;28;20029;-72
2022/12/31 00:24:56;;;;;;;27.27;2.95;;;;;;;12.09;100.00;99680.72;5009682;28;20039;-72
2022/12/31 00:27:21;;;;;;;22.90;3.30;;;;;;;12.10;100.00;99684.31;5022447;28;20034;-72
2022/12/31 00:29:47;;;;;;;28.85;3.00;;;;;;;12.12;100.00;99680.06;5021614;28;20383;-72
2022/12/31 00:32:12;;;;;;;22.20;3.40;;;;;;;12.11;100.00;99688.72;5005068;28;20111;-72
2022/12/31 00:34:38;;;;;;;22.40;3.38;;;;;;;12.09;100.00;99691.84;5001608;28;20041;-73
2022/12/31 00:37:03;;;;;;;27.27;3.70;;;;;;;12.10;100.00;99692.66;5027844;28;20044;-72
2022/12/31 00:39:29;;;;;;;24.92;3.53;;;;;;;12.10;100.00;99704.59;5012021;28;20029;-72
2022/12/31 00:41:54;;;;;;;27.45;3.22;;;;;;;12.12;100.00;99705.09;4988914;28;20060;-72
2022/12/31 00:44:20;;;;;;;26.48;3.58;;;;;;;12.13;100.00;99703.94;4988672;28;20026;-72
2022/12/31 00:46:46;;;;;;;39.25;4.03;;;;;;;12.12;100.00;99701.47;4988871;28;20022;-72
2022/12/31 00:49:11;;;;;;;23.02;3.20;;;;;;;12.15;100.00;99710.03;5004987;28;20435;-72
2022/12/31 00:51:37;;;;;;;24.67;3.35;;;;;;;12.12;100.00;99713.47;4988630;28;20045;-72
2022/12/31 00:54:02;;;;;;;20.95;3.30;;;;;;;12.15;100.00;99723.13;4988433;28;20033;-73
2022/12/31 00:56:28;;;;;;;26.50;3.85;;;;;;;12.12;100.00;99710.69;5008441;28;20489;-73
2022/12/31 00:58:54;;;;;;;30.65;3.80;;;;;;;12.14;100.00;99718.69;5004685;28;20501;-72
2022/12/31 01:01:24;;;;;;;29.25;4.68;;;;;;;12.14;100.00;99721.47;5021109;28;20030;-73
2022/12/31 01:03:50;;;;;;;28.20;2.78;;;;;;;12.13;100.00;99712.31;5038749;28;20092;-73
2022/12/31 01:06:16;;;;;;;26.10;3.42;;;;;;;12.13;100.00;99717.88;5016706;28;20063;-73
2022/12/31 01:08:42;;;;;;;33.30;4.15;;;;;;;12.14;100.00;99721.47;5004523;28;20021;-73
2022/12/31 01:11:18;;;;;;;23.30;3.15;;;;;;;12.17;100.00;99704.13;5021364;28;20479;-73
2022/12/31 01:13:51;;;;;;;26.48;3.05;;;;;;;12.15;100.00;99712.81;5006042;28;20034;-73
2022/12/31 01:16:19;;;;;;;23.50;3.35;;;;;;;12.15;100.00;99704.44;5021075;28;20053;-73
2022/12/31 01:18:44;;;;;;;31.08;4.10;;;;;;;12.16;100.00;99702.50;4987563;28;20086;-73
2022/12/31 01:21:10;;;;;;;28.77;3.35;;;;;;;12.15;100.00;99714.78;5017885;28;20419;-72
2022/12/31 01:23:36;;;;;;;19.48;3.08;;;;;;;12.14;100.00;99716.72;4983479;28;20088;-72
2022/12/31 01:26:02;;;;;;;27.75;4.28;;;;;;;12.17;100.00;99704.13;4990365;28;20033;-73
2022/12/31 01:28:28;;;;;;;30.17;3.00;;;;;;;12.14;100.00;99711.16;5032212;28;20022;-73
2022/12/31 01:30:54;;;;;;;26.98;3.45;;;;;;;12.15;100.00;99706.44;5001504;28;20081;-72
2022/12/31 01:33:19;;;;;;;30.55;3.75;;;;;;;12.16;100.00;99733.09;5019113;28;20037;-72
2022/12/31 01:35:45;;;;;;;25.70;3.05;;;;;;;12.17;100.00;99729.97;5017841;28;20033;-72
2022/12/31 01:38:10;;;;;;;29.67;3.72;;;;;;;12.15;100.00;99715.59;5001213;28;20054;-73
2022/12/31 01:40:37;;;;;;;29.95;4.18;;;;;;;12.18;100.00;99730.81;5018565;28;20046;-72
2022/12/31 01:43:04;;;;;;;26.77;3.72;;;;;;;12.17;100.00;99720.81;5018199;28;20018;-73
2022/12/31 01:45:30;;;;;;;28.00;3.22;;;;;;;12.15;100.00;99723.94;5002470;28;20034;-72
2022/12/31 01:47:56;;;;;;;20.63;3.20;;;;;;;12.18;100.00;99725.25;5019640;28;20556;-72
2022/12/31 01:50:26;;;;;;;29.80;3.35;;;;;;;12.16;100.00;99713.63;5002099;28;20038;-73
2022/12/31 01:52:53;;;;;;;29.42;3.58;;;;;;;12.19;100.00;99744.41;5016242;28;20033;-72
2022/12/31 01:55:29;;;;;;;21.95;2.53;;;;;;;12.19;100.00;99752.75;5001236;28;20079;-73
2022/12/31 01:57:58;;;;;;;19.70;3.10;;;;;;;12.18;100.00;99748.34;5002287;28;20030;-72
2022/12/31 02:00:23;;;;;;;21.15;3.28;;;;;;;12.21;100.00;99758.81;4985161;28;20516;-72
2022/12/31 02:02:49;;;;;;;25.05;3.15;;;;;;;12.21;100.00;99739.34;5017304;28;20097;-73
2022/12/31 02:05:19;;;;;;;17.50;2.70;;;;;;;12.20;100.00;99751.63;5000764;28;20030;-72
2022/12/31 02:07:44;;;;;;;18.40;2.92;;;;;;;12.24;100.00;99735.91;5016919;28;20030;-73
2022/12/31 02:10:10;;;;;;;21.42;3.38;;;;;;;12.23;100.00;99759.34;5017212;28;20081;-72
2022/12/31 02:12:35;;;;;;;16.67;2.88;;;;;;;12.21;100.00;99756.03;4984613;28;20042;-72
2022/12/31 02:15:01;;;;;;;18.60;2.80;;;;;;;12.22;100.00;99752.09;4984355;28;20029;-72
2022/12/31 02:17:45;;;;;;;23.60;2.67;;;;;;;12.22;100.00;99762.44;5017117;28;20036;-72
2022/12/31 02:20:31;;;;;;;18.55;3.17;;;;;;;12.22;100.00;99751.28;4984291;28;20084;-72
2022/12/31 02:23:05;;;;;;;17.27;2.92;;;;;;;12.25;100.00;99759.81;5016545;28;20037;-72
2022/12/31 02:25:52;;;;;;;18.95;2.20;;;;;;;12.24;100.00;99749.81;5002776;28;20084;-72
2022/12/31 02:28:28;;;;;;;23.42;2.90;;;;;;;12.24;100.00;99744.25;5016553;28;20034;-72
2022/12/31 02:30:59;;;;;;;19.58;2.88;;;;;;;12.24;100.00;99755.41;4999957;28;20026;-72
2022/12/31 02:33:29;;;;;;;15.80;2.60;;;;;;;12.23;100.00;99764.91;4984605;28;20093;-72
2022/12/31 02:36:04;;;;;;;21.58;3.55;;;;;;;12.25;100.00;99754.25;5000679;28;20034;-72
2022/12/31 02:38:34;;;;;;;16.10;2.97;;;;;;;12.25;100.00;99762.59;5000384;28;20406;-72
2022/12/31 02:41:00;;;;;;;22.42;3.20;;;;;;;12.25;100.00;99751.44;5000728;28;20034;-72
2022/12/31 02:43:26;;;;;;;25.50;3.58;;;;;;;12.25;100.00;99759.81;4967967;28;20069;-72
2022/12/31 02:45:54;;;;;;;18.60;3.17;;;;;;;12.25;100.00;99756.22;4983896;28;20037;-72
2022/12/31 02:48:40;;;;;;;14.15;2.63;;;;;;;12.25;100.00;99751.44;5017405;28;20040;-72
2022/12/31 02:51:29;;;;;;;20.38;3.45;;;;;;;12.28;100.00;99763.91;4986755;28;20046;-72
2022/12/31 02:54:07;;;;;;;19.27;3.60;;;;;;;12.27;100.00;99753.94;4984694;28;20049;-72
2022/12/31 02:56:58;;;;;;;22.35;3.80;;;;;;;12.27;100.00;99748.38;5004951;28;20050;-73
2022/12/31 03:02:15;;;;;;;21.38;3.17;;;;;;;12.29;100.00;99762.78;5016219;28;20073;-72
2022/12/31 03:04:59;;;;;;;29.52;4.35;;;;;;;12.28;100.00;99742.44;5016066;28;20026;-72
2022/12/31 03:07:30;;;;;;;22.35;3.85;;;;;;;12.28;100.00;99756.38;5002154;28;20434;-72
2022/12/31 03:09:56;;;;;;;19.63;3.10;;;;;;;12.30;100.00;99754.09;4999648;28;20033;-73
2022/12/31 03:15:18;;;;;;;19.98;4.32;;;;;;;12.28;100.00;99758.34;5002344;28;20481;-72
2022/12/31 03:17:57;;;;;;;18.55;3.83;;;;;;;12.30;100.00;99759.66;5016048;28;20386;-72
2022/12/31 03:23:15;;;;;;;22.50;4.05;;;;;;;12.28;100.00;99745.22;5002232;28;20022;-73
2022/12/31 03:25:40;;;;;;;20.67;3.67;;;;;;;12.25;100.00;99759.81;4999467;28;20030;-73
2022/12/31 03:28:11;;;;;;;25.60;4.07;;;;;;;12.28;100.00;99750.81;4999458;28;20041;-72
2022/12/31 03:30:38;;;;;;;19.20;3.63;;;;;;;12.30;100.00;99739.34;5018880;28;20037;-72
2022/12/31 03:33:03;;;;;;;23.48;4.30;;;;;;;12.28;100.00;99750.81;5015523;28;20038;-73
2022/12/31 03:35:30;;;;;;;24.13;3.65;;;;;;;12.30;100.00;99756.06;4999399;28;20034;-72
2022/12/31 03:37:56;;;;;;;22.58;4.13;;;;;;;12.30;100.00;99776.38;4982546;28;20058;-72
2022/12/31 03:40:22;;;;;;;24.23;3.53;;;;;;;12.28;100.00;99739.66;5015682;28;20095;-72
2022/12/31 03:42:48;;;;;;;22.17;4.38;;;;;;;12.28;100.00;99748.03;5015765;28;20033;-72
2022/12/31 03:45:14;;;;;;;20.98;4.10;;;;;;;12.31;100.00;99774.41;4982950;28;20037;-72
2022/12/31 03:47:39;;;;;;;19.35;3.70;;;;;;;12.30;100.00;99761.63;5016490;28;20069;-73
2022/12/31 03:50:05;;;;;;;18.02;4.00;;;;;;;12.29;100.00;99771.94;5015162;28;20029;-73
2022/12/31 03:52:30;;;;;;;23.42;3.55;;;;;;;12.29;100.00;99758.03;5015927;28;20083;-72
2022/12/31 03:54:56;;;;;;;21.27;4.35;;;;;;;12.27;100.00;99754.75;5018912;28;20038;-72
2022/12/31 03:57:22;;;;;;;21.27;4.00;;;;;;;12.30;100.00;99736.56;5019566;28;20033;-72
2022/12/31 03:59:48;;;;;;;20.10;3.47;;;;;;;12.33;100.00;99755.41;5027502;28;20030;-72
2022/12/31 04:02:13;;;;;;;21.23;3.75;;;;;;;12.33;100.00;99762.94;5008508;28;20060;-72
2022/12/31 04:04:39;;;;;;;19.15;3.75;;;;;;;12.33;100.00;99757.38;5027058;28;20037;-72
2022/12/31 04:07:04;;;;;;;15.32;3.65;;;;;;;12.32;100.00;99776.06;5001089;28;20387;-73
2022/12/31 04:09:30;;;;;;;17.13;3.80;;;;;;;12.34;100.00;99771.00;5016111;28;20041;-72
2022/12/31 04:11:55;;;;;;;19.27;3.97;;;;;;;12.32;100.00;99773.28;4982428;28;20030;-72
2022/12/31 04:14:20;;;;;;;13.90;2.80;;;;;;;12.34;100.00;99759.00;5014850;28;20026;-72
2022/12/31 04:16:46;;;;;;;15.98;3.15;;;;;;;12.35;100.00;99760.66;5028150;28;20033;-72
2022/12/31 04:19:12;;;;;;;17.70;3.17;;;;;;;12.33;100.00;99754.59;5006050;28;20028;-72
2022/12/31 04:21:37;;;;;;;20.23;3.70;;;;;;;12.30;100.00;99750.50;5004168;28;20026;-72
2022/12/31 04:24:03;;;;;;;16.95;3.05;;;;;;;12.35;100.00;99752.31;5010311;28;20022;-73
2022/12/31 04:26:29;;;;;;;13.07;2.88;;;;;;;12.34;100.00;99745.94;5007346;28;20026;-72
2022/12/31 04:28:54;;;;;;;20.83;3.50;;;;;;;12.36;100.00;99753.94;5044815;28;20089;-72
2022/12/31 04:31:20;;;;;;;17.00;3.28;;;;;;;12.35;100.00;99757.88;5014884;28;20537;-72
2022/12/31 04:33:45;;;;;;;17.25;3.10;;;;;;;12.34;100.00;99759.00;5016255;28;20038;-72
2022/12/31 04:36:11;;;;;;;18.80;3.42;;;;;;;12.35;100.00;99760.66;5027018;28;20508;-72
2022/12/31 04:38:36;;;;;;;19.33;3.00;;;;;;;12.35;100.00;99750.34;4999083;28;20053;-72
2022/12/31 04:41:17;;;;;;;12.20;2.97;;;;;;;12.35;100.00;99760.66;5015235;28;20048;-72
2022/12/31 04:43:49;;;;;;;18.10;3.28;;;;;;;12.34;100.00;99754.28;5016954;28;20030;-72
2022/12/31 04:46:15;;;;;;;12.95;3.08;;;;;;;12.38;100.00;99748.88;4982740;28;20143;-72
2022/12/31 04:48:41;;;;;;;19.67;3.58;;;;;;;12.36;100.00;99749.19;4982251;28;20029;-72
2022/12/31 04:51:06;;;;;;;14.48;3.30;;;;;;;12.36;100.00;99774.25;4997225;28;20038;-72
2022/12/31 04:53:32;;;;;;;22.10;3.75;;;;;;;12.37;100.00;99766.72;5015401;28;20029;-72
2022/12/31 04:55:57;;;;;;;22.95;3.92;;;;;;;12.37;100.00;99769.50;4986129;28;20462;-73
2022/12/31 04:58:23;;;;;;;17.55;3.25;;;;;;;12.37;100.00;99750.00;4986032;28;20053;-72
2022/12/31 05:00:49;;;;;;;16.90;3.45;;;;;;;12.37;100.00;99750.84;4984896;28;20041;-72
2022/12/31 05:03:16;;;;;;;22.92;3.90;;;;;;;12.35;100.00;99743.97;4969884;28;20125;-72
2022/12/31 05:05:42;;;;;;;17.67;3.85;;;;;;;12.35;100.00;99742.00;5002143;28;20029;-72
2022/12/31 05:08:11;;;;;;;18.98;3.78;;;;;;;12.35;100.00;99739.22;4985578;28;20462;-72
2022/12/31 05:10:39;;;;;;;16.02;3.47;;;;;;;12.36;100.00;99748.38;5001831;28;20088;-72
2022/12/31 05:13:05;;;;;;;20.58;4.15;;;;;;;12.35;100.00;99757.88;5002122;28;20032;-72
2022/12/31 05:15:30;;;;;;;25.42;4.78;;;;;;;12.37;100.00;99767.56;5018046;28;20030;-72
2022/12/31 05:17:56;;;;;;;19.95;3.78;;;;;;;12.38;100.00;99776.72;5019356;28;20045;-72
2022/12/31 05:20:21;;;;;;;24.85;4.13;;;;;;;12.37;100.00;99789.00;5018972;28;20030;-72
2022/12/31 05:22:46;;;;;;;23.45;3.80;;;;;;;12.36;100.00;99790.13;5001385;28;20041;-72
2022/12/31 05:25:12;;;;;;;21.10;4.68;;;;;;;12.35;100.00;99786.53;4988730;28;20097;-72
2022/12/31 05:27:37;;;;;;;21.08;4.13;;;;;;;12.37;100.00;99784.25;4985405;28;20021;-72
2022/12/31 05:30:04;;;;;;;20.08;4.15;;;;;;;12.38;100.00;99796.22;4985141;28;20093;-72
2022/12/31 05:32:30;;;;;;;24.00;4.35;;;;;;;12.38;100.00;99783.09;5018083;28;20034;-72
2022/12/31 05:34:56;;;;;;;26.33;4.88;;;;;;;12.39;100.00;99795.88;5017620;28;20037;-73
2022/12/31 05:37:21;;;;;;;23.10;4.57;;;;;;;12.39;100.00;99792.28;5017494;28;20430;-72
2022/12/31 05:39:47;;;;;;;24.20;4.53;;;;;;;12.40;100.00;99796.72;5001173;28;20064;-72
2022/12/31 05:42:12;;;;;;;27.63;4.82;;;;;;;12.40;100.00;99785.59;5017644;28;20387;-72
2022/12/31 05:44:38;;;;;;;28.40;4.32;;;;;;;12.40;100.00;99799.50;5018960;28;20026;-73
2022/12/31 05:47:04;;;;;;;28.45;4.55;;;;;;;12.39;100.00;99789.50;4969115;28;20034;-72
2022/12/31 05:49:29;;;;;;;31.35;5.45;;;;;;;12.40;100.00;99802.28;4987487;28;20120;-72
2022/12/31 05:51:54;;;;;;;27.80;5.35;;;;;;;12.38;100.00;99804.56;5026434;28;20022;-72
2022/12/31 05:54:20;;;;;;;30.60;5.00;;;;;;;12.38;100.00;99807.34;5031359;28;20034;-72
2022/12/31 05:56:45;;;;;;;25.48;4.68;;;;;;;12.36;100.00;99809.63;5001313;28;20085;-72
2022/12/31 05:59:11;;;;;;;21.73;4.45;;;;;;;12.37;100.00;99800.13;5001082;28;20070;-72
2022/12/31 06:01:36;;;;;;;27.05;5.35;;;;;;;12.39;100.00;99795.88;5000911;28;20030;-73
2022/12/31 06:04:02;;;;;;;28.60;4.65;;;;;;;12.35;100.00;99808.00;5018355;28;20048;-72
2022/12/31 06:06:27;;;;;;;19.67;4.10;;;;;;;12.34;100.00;99807.19;4999938;28;20505;-73
2022/12/31 06:08:53;;;;;;;24.23;4.90;;;;;;;12.33;100.00;99802.75;5018988;28;20026;-72
2022/12/31 06:11:18;;;;;;;28.58;4.97;;;;;;;12.30;100.00;99797.81;5030680;28;20036;-72
2022/12/31 06:13:44;;;;;;;27.88;5.15;;;;;;;12.27;100.00;99799.28;4991396;28;20037;-72
2022/12/31 06:16:09;;;;;;;22.45;5.00;;;;;;;12.28;100.00;99806.47;4988445;28;20541;-72
2022/12/31 06:18:35;;;;;;;25.50;4.53;;;;;;;12.28;100.00;99806.47;5004607;28;20059;-72
2022/12/31 06:21:01;;;;;;;26.45;5.30;;;;;;;12.24;100.00;99818.59;4988489;28;20063;-72
2022/12/31 06:23:26;;;;;;;31.75;4.60;;;;;;;12.23;100.00;99792.75;5016836;28;20478;-72
2022/12/31 06:25:52;;;;;;;24.65;4.45;;;;;;;12.23;100.00;99803.88;5005546;28;20034;-72
2022/12/31 06:28:17;;;;;;;27.33;5.10;;;;;;;12.23;100.00;99809.44;5016592;28;20029;-72
2022/12/31 06:30:43;;;;;;;34.90;5.53;;;;;;;12.22;100.00;99813.34;5016664;28;20072;-72
2022/12/31 06:33:08;;;;;;;18.50;4.38;;;;;;;12.18;100.00;99815.16;5000069;28;20034;-73
2022/12/31 06:35:34;;;;;;;28.60;4.38;;;;;;;12.19;100.00;99814.00;5016663;28;20034;-72
2022/12/31 06:38:00;;;;;;;33.10;4.18;;;;;;;12.18;100.00;99806.81;5017316;28;20085;-73
2022/12/31 06:40:25;;;;;;;29.77;4.68;;;;;;;12.19;100.00;99807.63;5017744;28;20091;-72
2022/12/31 06:42:52;;;;;;;26.25;4.55;;;;;;;12.15;100.00;99813.00;5017952;28;20026;-73
2022/12/31 06:45:18;;;;;;;24.52;4.30;;;;;;;12.17;100.00;99805.13;5000329;28;20376;-72
2022/12/31 06:47:43;;;;;;;21.58;4.00;;;;;;;12.16;100.00;99778.47;5016341;28;20036;-72
2022/12/31 06:50:09;;;;;;;21.70;5.43;;;;;;;12.16;100.00;99803.50;5016214;28;20038;-72
2022/12/31 06:52:34;;;;;;;22.80;4.13;;;;;;;12.15;100.00;99790.75;4997968;28;20038;-72
2022/12/31 06:55:00;;;;;;;19.35;3.95;;;;;;;12.13;100.00;99798.59;4999766;28;20065;-72
2022/12/31 06:57:26;;;;;;;13.80;3.85;;;;;;;12.14;100.00;99810.53;4983632;28;20061;-72
2022/12/31 06:59:52;;;;;;;23.67;4.05;;;;;;;12.10;100.00;99818.72;5016203;28;20216;-73
2022/12/31 07:02:39;;;;;;;22.80;4.70;;;;;;;12.10;100.00;99812.34;5012843;28;20440;-73
2022/12/31 07:05:23;;;;;;;21.17;4.43;;;;;;;12.07;100.00;99808.22;4999517;28;20065;-73
2022/12/31 07:07:57;;;;;;;26.90;4.50;;;;;;;12.05;100.00;99825.22;5019101;28;20033;-72
2022/12/31 07:10:44;;;;;;;19.23;4.47;;;;;;;12.08;100.00;99823.78;5032788;28;20052;-72
2022/12/31 07:13:39;;;;;;;21.88;4.35;;;;;;;12.04;100.00;99839.50;5035584;28;20037;-73
2022/12/31 07:16:26;;;;;;;26.50;5.00;;;;;;;12.03;100.00;99838.63;5004670;28;20123;-73
2022/12/31 07:19:11;;;;;;;24.98;4.40;;;;;;;12.00;100.00;99844.03;5015964;28;20113;-73
2022/12/31 07:21:38;;;;;;;20.73;5.47;;;;;;;12.00;100.00;99860.72;5002544;28;20037;-73
2022/12/31 07:24:08;;;;;;;25.25;4.78;;;;;;;11.99;100.00;99856.31;5055011;28;20027;-73
2022/12/31 07:26:39;;;;;;;19.98;4.32;;;;;;;11.96;100.00;99855.00;5025306;28;20115;-72
2022/12/31 07:29:28;;;;;;;23.38;4.30;;;;;;;11.97;100.00;99839.94;5004464;28;20406;-72
2022/12/31 07:32:15;;;;;;;23.08;3.65;;;;;;;11.95;100.00;99841.38;5028927;28;20117;-72
2022/12/31 07:34:47;;;;;;;26.15;5.45;;;;;;;11.95;100.00;99831.09;4985256;28;20096;-73
2022/12/31 07:37:54;;;;;;;20.17;4.43;;;;;;;11.92;100.00;99831.72;5015578;28;20041;-73
2022/12/31 07:40:31;;;;;;;20.08;4.60;;;;;;;11.90;100.00;99842.38;5003430;28;20045;-72
2022/12/31 07:43:17;;;;;;;21.02;3.97;;;;;;;11.89;100.00;99848.22;5000249;28;20045;-73
2022/12/31 07:45:53;;;;;;;20.25;4.03;;;;;;;11.90;100.00;99844.34;5015406;28;20061;-72
2022/12/31 07:48:24;;;;;;;20.10;4.15;;;;;;;11.88;100.00;99849.38;4999179;28;20029;-73
2022/12/31 07:50:50;;;;;;;22.35;4.03;;;;;;;11.87;100.00;99856.06;4997748;28;20117;-72
2022/12/31 07:53:16;;;;;;;23.13;4.78;;;;;;;11.85;100.00;99848.03;5015102;28;20111;-72
2022/12/31 07:55:42;;;;;;;24.48;4.18;;;;;;;11.85;100.00;99843.31;5012085;28;20029;-72
2022/12/31 07:58:18;;;;;;;24.95;3.97;;;;;;;11.81;100.00;99858.97;4999105;28;20034;-73
2022/12/31 08:00:43;;;;;;;22.88;3.80;;;;;;;11.81;100.00;99845.06;4998984;28;20026;-73
2022/12/31 08:03:33;;;;;;;27.33;4.28;;;;;;;11.81;100.00;99856.19;4982707;28;20414;-72
2022/12/31 08:05:58;;;;;;;19.35;3.92;;;;;;;11.81;100.00;99852.56;5014002;28;20045;-73
2022/12/31 08:08:48;;;;;;;22.60;3.92;;;;;;;11.81;100.00;99850.63;5016228;28;20029;-73
2022/12/31 08:11:41;;;;;;;24.75;4.20;;;;;;;11.81;100.00;99855.34;5005411;28;20036;-72
2022/12/31 08:14:11;;;;;;;19.10;3.88;;;;;;;11.78;100.00;99851.28;5029380;28;20076;-73
2022/12/31 08:16:36;;;;;;;20.63;3.80;;;;;;;11.77;100.00;99862.69;4982599;28;20045;-73
2022/12/31 08:19:02;;;;;;;19.95;3.67;;;;;;;11.78;100.00;99875.47;4998737;28;20061;-73
2022/12/31 08:21:52;;;;;;;24.23;4.35;;;;;;;11.78;100.00;99875.47;5015303;28;20042;-72
2022/12/31 08:24:26;;;;;;;23.75;4.30;;;;;;;11.74;100.00;99869.72;5001798;28;20027;-72
2022/12/31 08:27:27;;;;;;;23.80;4.03;;;;;;;11.73;100.00;99870.03;5030124;28;20093;-72
2022/12/31 08:30:09;;;;;;;23.73;3.80;;;;;;;11.72;100.00;99874.78;4970409;28;20034;-73
2022/12/31 08:32:40;;;;;;;24.70;3.65;;;;;;;11.70;100.00;99863.16;5007836;28;20112;-73
2022/12/31 08:35:37;;;;;;;16.23;3.55;;;;;;;11.71;100.00;99856.44;5022862;28;20097;-73
2022/12/31 08:38:21;;;;;;;20.52;3.92;;;;;;;11.68;100.00;99859.88;5019621;28;20395;-72
2022/12/31 08:41:31;;;;;;;25.02;4.38;;;;;;;11.66;100.00;99856.56;5020007;28;20030;-73
2022/12/31 08:44:21;;;;;;;20.77;3.75;;;;;;;11.65;100.00;99874.41;5002876;28;20061;-72
2022/12/31 08:47:25;;;;;;;20.08;4.18;;;;;;;11.65;100.00;99862.47;5005476;28;20042;-73
2022/12/31 08:49:50;;;;;;;25.48;3.72;;;;;;;11.63;100.00;99863.59;4976512;28;20061;-73
2022/12/31 08:52:22;;;;;;;24.67;4.15;;;;;;;11.60;100.00;99874.53;5000787;28;20073;-72
2022/12/31 08:54:48;;;;;;;22.02;3.55;;;;;;;11.60;100.00;99874.53;4994240;28;20073;-73
2022/12/31 08:57:37;;;;;;;21.58;3.63;;;;;;;11.58;100.00;99872.06;5014013;28;20041;-72
2022/12/31 09:00:10;;;;;;;22.33;4.10;;;;;;;11.59;100.00;99870.13;4981317;28;20039;-73
2022/12/31 09:03:04;;;;;;;19.55;3.80;;;;;;;11.56;100.00;99867.94;5011073;28;20140;-72
2022/12/31 09:05:48;;;;;;;20.10;4.55;;;;;;;11.54;100.00;99864.69;4997359;28;20096;-72
2022/12/31 09:09:07;;;;;;;17.00;4.07;;;;;;;11.53;100.00;99871.38;5000483;28;20034;-72
2022/12/31 09:11:56;;;;;;;24.67;4.00;;;;;;;11.52;100.00;99869.72;4923447;29;20031;-72
2022/12/31 09:14:26;;;;;;;18.38;4.10;;;;;;;11.50;100.00;99872.00;4923515;29;20757;-72
2022/12/31 09:17:24;;;;;;;23.23;4.70;;;;;;;11.49;100.00;99871.19;4934554;29;20504;-73
2022/12/31 09:19:50;;;;;;;28.35;4.30;;;;;;;11.50;100.00;99880.34;4929967;29;20039;-72
2022/12/31 09:22:15;;;;;;;25.40;4.57;;;;;;;11.50;100.00;99864.47;4940125;29;20059;-72
2022/12/31 09:24:41;;;;;;;22.10;4.40;;;;;;;11.51;100.00;99857.78;4922906;29;20076;-75
2022/12/31 09:27:27;;;;;;;30.05;4.03;;;;;;;11.54;100.00;99864.69;4959163;28;20786;-72
2022/12/31 09:29:52;;;;;;;20.88;4.15;;;;;;;11.55;100.00;99842.09;4944790;29;20111;-72
2022/12/31 09:32:42;;;;;;;20.02;4.28;;;;;;;11.57;100.00;99847.38;4936073;29;20176;-69
2022/12/31 09:35:29;;;;;;;19.90;4.07;;;;;;;11.59;100.00;99851.47;4953941;28;20031;-72
2022/12/31 09:38:10;;;;;;;24.25;3.83;;;;;;;11.62;100.00;99834.16;4941770;28;20051;-72
2022/12/31 09:41:13;;;;;;;21.80;4.45;;;;;;;11.67;100.00;99844.31;4922966;29;20035;-72
2022/12/31 09:43:48;;;;;;;25.75;4.25;;;;;;;11.72;100.00;99858.09;4938976;29;20067;-72
2022/12/31 09:46:35;;;;;;;25.00;4.43;;;;;;;11.77;100.00;99868.28;5008770;28;20072;-73
2022/12/31 09:49:04;;;;;;;23.08;4.85;;;;;;;11.81;100.00;99858.97;5017662;28;20030;-72
2022/12/31 09:51:31;;;;;;;25.45;4.15;;;;;;;11.87;100.00;99856.06;5021898;28;20116;-73
2022/12/31 09:54:13;;;;;;;24.52;4.20;;;;;;;11.92;100.00;99845.63;5004877;28;20041;-73
2022/12/31 09:56:46;;;;;;;28.02;4.22;;;;;;;11.97;100.00;99855.81;5017515;28;20033;-73
2022/12/31 09:59:23;;;;;;;33.08;4.90;;;;;;;12.05;100.00;99860.59;5001214;28;20458;-73
2022/12/31 10:02:01;;;;;;;21.77;3.85;;;;;;;12.08;100.00;99852.44;4970095;28;20430;-73
2022/12/31 10:04:33;;;;;;;26.77;3.72;;;;;;;12.12;100.00;99858.19;4984714;28;20056;-72
2022/12/31 10:07:05;;;;;;;20.85;4.50;;;;;;;12.18;100.00;99862.47;5016953;28;20026;-72
2022/12/31 10:09:30;;;;;;;25.23;4.75;;;;;;;12.23;100.00;99861.50;5018135;28;20389;-72
2022/12/31 10:12:24;;;;;;;23.67;4.20;;;;;;;12.31;100.00;99857.91;5017229;28;20065;-73
2022/12/31 10:15:04;;;;;;;24.20;4.30;;;;;;;12.37;100.00;99847.47;5018214;28;20030;-73
2022/12/31 10:17:49;;;;;;;24.02;4.20;;;;;;;12.46;100.00;99853.91;5018285;28;20394;-73
2022/12/31 10:20:26;;;;;;;31.02;4.50;;;;;;;12.51;100.00;99853.75;5017899;28;20041;-73
2022/12/31 10:23:04;;;;;;;23.33;3.92;;;;;;;12.57;100.00;99843.28;5018090;28;20483;-73
2022/12/31 10:26:11;;;;;;;25.08;4.00;;;;;;;12.63;100.00;99840.03;5003908;28;20116;-73
2022/12/31 10:28:39;;;;;;;29.98;4.22;;;;;;;12.70;100.00;99842.31;4999067;28;20070;-73
2022/12/31 10:31:29;;;;;;;26.63;5.07;;;;;;;12.74;100.00;99826.59;5018192;28;20040;-73
2022/12/31 10:34:14;;;;;;;30.75;4.90;;;;;;;12.79;100.00;99828.41;5005242;28;20045;-73
2022/12/31 10:36:50;;;;;;;26.67;4.72;;;;;;;12.84;100.00;99825.47;5013009;28;20525;-73
2022/12/31 10:39:34;;;;;;;25.13;4.05;;;;;;;12.90;100.00;99810.25;5017485;28;20046;-72
2022/12/31 10:42:18;;;;;;;24.13;4.40;;;;;;;12.91;100.00;99806.31;5004999;28;20039;-72
2022/12/31 10:45:16;;;;;;;27.73;4.88;;;;;;;12.97;100.00;99818.91;5017657;28;20029;-72
2022/12/31 10:48:19;;;;;;;26.13;4.30;;;;;;;13.02;100.00;99829.91;4983856;28;20049;-72
2022/12/31 10:50:44;;;;;;;18.17;4.07;;;;;;;13.06;100.00;99810.56;5016239;28;20506;-73
2022/12/31 10:53:42;;;;;;;23.58;4.07;;;;;;;13.11;100.00;99805.63;5016867;28;20053;-73
2022/12/31 10:56:19;;;;;;;24.50;4.40;;;;;;;13.14;100.00;99804.97;5018760;28;20028;-71
2022/12/31 10:59:06;;;;;;;22.45;4.15;;;;;;;13.17;100.00;99797.94;5017507;28;20038;-71
2022/12/31 11:01:55;;;;;;;22.55;4.10;;;;;;;13.20;100.00;99805.63;5004201;28;20030;-71
2022/12/31 11:04:38;;;;;;;25.58;3.95;;;;;;;13.23;100.00;99785.44;4988821;28;20386;-71
2022/12/31 11:07:24;;;;;;;24.38;3.90;;;;;;;13.29;100.00;99809.28;4999877;28;20029;-71
2022/12/31 11:09:58;;;;;;;20.83;3.90;;;;;;;13.34;100.00;99792.38;4999616;28;20054;-71
2022/12/31 11:12:57;;;;;;;24.55;3.78;;;;;;;13.41;100.00;99801.06;4999647;28;20038;-71
2022/12/31 11:15:29;;;;;;;28.95;4.72;;;;;;;13.46;100.00;99788.91;4999669;28;20034;-71
2022/12/31 11:18:00;;;;;;;25.95;4.03;;;;;;;13.50;100.00;99789.06;5015912;28;20030;-71
2022/12/31 11:21:12;;;;;;;19.73;3.80;;;;;;;13.58;100.00;99791.03;5015636;28;20040;-71
2022/12/31 11:24:03;;;;;;;29.63;4.50;;;;;;;13.64;100.00;99778.53;4984095;28;20033;-72
2022/12/31 11:26:39;;;;;;;21.35;3.97;;;;;;;13.69;100.00;99785.91;5024444;28;20041;-71
2022/12/31 11:29:37;;;;;;;18.67;3.78;;;;;;;13.77;100.00;99771.13;5003627;28;20037;-71
2022/12/31 11:32:25;;;;;;;27.95;4.97;;;;;;;13.83;100.00;99769.78;4990730;28;20069;-71
2022/12/31 11:35:03;;;;;;;25.40;4.43;;;;;;;13.87;100.00;99779.09;4999117;28;20034;-72
2022/12/31 11:37:47;;;;;;;24.85;4.28;;;;;;;13.97;100.00;99775.16;5000033;28;20065;-71
2022/12/31 11:40:37;;;;;;;20.65;4.80;;;;;;;14.01;100.00;99774.16;4999327;28;20029;-71
2022/12/31 11:43:23;;;;;;;21.85;4.20;;;;;;;14.06;100.00;99768.34;5015628;28;20395;-72
2022/12/31 11:46:08;;;;;;;26.88;4.72;;;;;;;14.14;100.00;99768.66;4989216;28;20054;-71
2022/12/31 11:48:36;;;;;;;24.48;4.72;;;;;;;14.21;100.00;99768.97;5003498;28;20681;-72
2022/12/31 11:51:39;;;;;;;23.58;4.40;;;;;;;14.30;100.00;99766.94;4998020;28;20064;-73